sensor_id;sensor_type;location;lat;lon;timestamp;temperature;humidity
33707;DHT22;20583;50.960;5.332;2022-07-10T00:00:29;25.20;60.60
33707;DHT22;20583;50.960;5.332;2022-07-10T00:02:55;25.20;60.70
33707;DHT22;20583;50.960;5.332;2022-07-10T00:05:22;25.20;60.60
33707;DHT22;20583;50.960;5.332;2022-07-10T00:07:48;25.20;60.70
33707;DHT22;20583;50.960;5.332;2022-07-10T00:10:15;25.20;60.50
33707;DHT22;20583;50.960;5.332;2022-07-10T00:12:41;25.20;60.50
33707;DHT22;20583;50.960;5.332;2022-07-10T00:15:07;25.20;60.70
33707;DHT22;20583;50.960;5.332;2022-07-10T00:17:33;25.10;60.60
33707;DHT22;20583;50.960;5.332;2022-07-10T00:19:59;25.20;60.70
33707;DHT22;20583;50.960;5.332;2022-07-10T00:22:25;25.10;60.50
33707;DHT22;20583;50.960;5.332;2022-07-10T00:24:51;25.10;60.70
33707;DHT22;20583;50.960;5.332;2022-07-10T00:27:18;25.20;60.70
33707;DHT22;20583;50.960;5.332;2022-07-10T00:29:44;25.20;60.60
33707;DHT22;20583;50.960;5.332;2022-07-10T00:32:09;25.20;60.70
33707;DHT22;20583;50.960;5.332;2022-07-10T00:34:36;25.20;60.80
33707;DHT22;20583;50.960;5.332;2022-07-10T00:37:03;25.20;60.80
33707;DHT22;20583;50.960;5.332;2022-07-10T00:39:29;25.10;60.90
33707;DHT22;20583;50.960;5.332;2022-07-10T00:42:05;25.10;60.90
33707;DHT22;20583;50.960;5.332;2022-07-10T00:44:30;25.10;60.80
33707;DHT22;20583;50.960;5.332;2022-07-10T00:46:56;25.10;60.60
33707;DHT22;20583;50.960;5.332;2022-07-10T00:49:22;25.10;60.70
33707;DHT22;20583;50.960;5.332;2022-07-10T00:51:47;25.10;60.80
33707;DHT22;20583;50.960;5.332;2022-07-10T00:54:13;25.10;60.70
33707;DHT22;20583;50.960;5.332;2022-07-10T00:56:39;25.10;60.80
33707;DHT22;20583;50.960;5.332;2022-07-10T00:59:05;25.10;60.80
33707;DHT22;20583;50.960;5.332;2022-07-10T01:01:32;25.10;60.80
33707;DHT22;20583;50.960;5.332;2022-07-10T01:03:58;25.10;60.70
33707;DHT22;20583;50.960;5.332;2022-07-10T01:06:24;25.10;60.70
33707;DHT22;20583;50.960;5.332;2022-07-10T01:08:49;25.00;60.80
33707;DHT22;20583;50.960;5.332;2022-07-10T01:11:15;25.00;60.80
33707;DHT22;20583;50.960;5.332;2022-07-10T01:13:43;25.00;60.80
33707;DHT22;20583;50.960;5.332;2022-07-10T01:16:09;25.00;60.90
33707;DHT22;20583;50.960;5.332;2022-07-10T01:18:35;25.00;60.80
33707;DHT22;20583;50.960;5.332;2022-07-10T01:21:01;25.00;60.70
33707;DHT22;20583;50.960;5.332;2022-07-10T01:23:26;25.00;60.70
33707;DHT22;20583;50.960;5.332;2022-07-10T01:25:52;25.00;60.70
33707;DHT22;20583;50.960;5.332;2022-07-10T01:28:20;25.00;60.70
33707;DHT22;20583;50.960;5.332;2022-07-10T01:30:46;25.00;60.70
33707;DHT22;20583;50.960;5.332;2022-07-10T01:33:13;24.90;60.80
33707;DHT22;20583;50.960;5.332;2022-07-10T01:35:39;25.00;60.80
33707;DHT22;20583;50.960;5.332;2022-07-10T01:38:05;24.90;60.70
33707;DHT22;20583;50.960;5.332;2022-07-10T01:40:31;24.90;60.60
33707;DHT22;20583;50.960;5.332;2022-07-10T01:42:57;24.90;60.70
33707;DHT22;20583;50.960;5.332;2022-07-10T01:45:23;24.90;60.80
33707;DHT22;20583;50.960;5.332;2022-07-10T01:47:49;24.90;60.80
33707;DHT22;20583;50.960;5.332;2022-07-10T01:50:15;24.90;60.70
33707;DHT22;20583;50.960;5.332;2022-07-10T01:52:40;24.90;60.70
33707;DHT22;20583;50.960;5.332;2022-07-10T01:55:07;24.90;60.70
33707;DHT22;20583;50.960;5.332;2022-07-10T01:57:32;24.90;60.80
33707;DHT22;20583;50.960;5.332;2022-07-10T01:59:58;24.80;60.90
33707;DHT22;20583;50.960;5.332;2022-07-10T02:02:24;24.90;60.90
33707;DHT22;20583;50.960;5.332;2022-07-10T02:04:50;24.80;60.90
33707;DHT22;20583;50.960;5.332;2022-07-10T02:07:17;24.80;60.80
33707;DHT22;20583;50.960;5.332;2022-07-10T02:09:44;24.80;60.90
33707;DHT22;20583;50.960;5.332;2022-07-10T02:12:13;24.80;60.60
33707;DHT22;20583;50.960;5.332;2022-07-10T02:14:39;24.80;60.70
33707;DHT22;20583;50.960;5.332;2022-07-10T02:17:06;24.80;60.60
33707;DHT22;20583;50.960;5.332;2022-07-10T02:19:32;24.80;60.70
33707;DHT22;20583;50.960;5.332;2022-07-10T02:21:58;24.80;60.80
33707;DHT22;20583;50.960;5.332;2022-07-10T02:24:24;24.80;60.80
33707;DHT22;20583;50.960;5.332;2022-07-10T02:26:50;24.80;61.40
33707;DHT22;20583;50.960;5.332;2022-07-10T02:29:16;24.80;60.70
33707;DHT22;20583;50.960;5.332;2022-07-10T02:31:42;24.80;61.40
33707;DHT22;20583;50.960;5.332;2022-07-10T02:34:10;24.80;60.60
33707;DHT22;20583;50.960;5.332;2022-07-10T02:36:36;24.80;60.60
33707;DHT22;20583;50.960;5.332;2022-07-10T02:39:04;24.80;60.70
33707;DHT22;20583;50.960;5.332;2022-07-10T02:41:29;24.80;60.60
33707;DHT22;20583;50.960;5.332;2022-07-10T02:43:56;24.70;60.60
33707;DHT22;20583;50.960;5.332;2022-07-10T02:46:21;24.70;60.50
33707;DHT22;20583;50.960;5.332;2022-07-10T02:48:47;24.80;60.60
33707;DHT22;20583;50.960;5.332;2022-07-10T02:51:13;24.70;60.50
33707;DHT22;20583;50.960;5.332;2022-07-10T02:53:39;24.70;60.50
33707;DHT22;20583;50.960;5.332;2022-07-10T02:56:05;24.70;60.50
33707;DHT22;20583;50.960;5.332;2022-07-10T02:58:31;24.70;60.50
33707;DHT22;20583;50.960;5.332;2022-07-10T03:00:57;24.70;60.50
33707;DHT22;20583;50.960;5.332;2022-07-10T03:03:23;24.70;60.60
33707;DHT22;20583;50.960;5.332;2022-07-10T03:05:48;24.70;60.60
33707;DHT22;20583;50.960;5.332;2022-07-10T03:08:14;24.60;60.70
33707;DHT22;20583;50.960;5.332;2022-07-10T03:10:40;24.70;60.60
33707;DHT22;20583;50.960;5.332;2022-07-10T03:13:06;24.70;60.70
33707;DHT22;20583;50.960;5.332;2022-07-10T03:15:32;24.60;60.60
33707;DHT22;20583;50.960;5.332;2022-07-10T03:17:58;24.60;60.50
33707;DHT22;20583;50.960;5.332;2022-07-10T03:20:24;24.60;60.60
33707;DHT22;20583;50.960;5.332;2022-07-10T03:22:50;24.60;60.60
33707;DHT22;20583;50.960;5.332;2022-07-10T03:25:15;24.60;60.60
33707;DHT22;20583;50.960;5.332;2022-07-10T03:27:41;24.60;60.60
33707;DHT22;20583;50.960;5.332;2022-07-10T03:30:08;24.60;60.60
33707;DHT22;20583;50.960;5.332;2022-07-10T03:32:33;24.60;60.60
33707;DHT22;20583;50.960;5.332;2022-07-10T03:34:59;24.60;60.50
33707;DHT22;20583;50.960;5.332;2022-07-10T03:37:25;24.60;60.60
33707;DHT22;20583;50.960;5.332;2022-07-10T03:39:51;24.50;60.60
33707;DHT22;20583;50.960;5.332;2022-07-10T03:42:17;24.60;60.60
33707;DHT22;20583;50.960;5.332;2022-07-10T03:44:42;24.50;60.60
33707;DHT22;20583;50.960;5.332;2022-07-10T03:47:08;24.60;60.50
33707;DHT22;20583;50.960;5.332;2022-07-10T03:49:34;24.60;60.40
33707;DHT22;20583;50.960;5.332;2022-07-10T03:52:01;24.60;60.40
33707;DHT22;20583;50.960;5.332;2022-07-10T03:54:27;24.60;60.50
33707;DHT22;20583;50.960;5.332;2022-07-10T03:56:53;24.50;60.50
33707;DHT22;20583;50.960;5.332;2022-07-10T03:59:37;24.50;60.50
33707;DHT22;20583;50.960;5.332;2022-07-10T04:02:03;24.60;60.40
33707;DHT22;20583;50.960;5.332;2022-07-10T04:04:29;24.50;60.50
33707;DHT22;20583;50.960;5.332;2022-07-10T04:06:56;24.50;60.50
33707;DHT22;20583;50.960;5.332;2022-07-10T04:09:22;24.50;60.50
33707;DHT22;20583;50.960;5.332;2022-07-10T04:11:48;24.50;60.50
33707;DHT22;20583;50.960;5.332;2022-07-10T04:14:13;24.50;60.50
33707;DHT22;20583;50.960;5.332;2022-07-10T04:16:39;24.50;60.40
33707;DHT22;20583;50.960;5.332;2022-07-10T04:19:05;24.50;60.40
33707;DHT22;20583;50.960;5.332;2022-07-10T04:21:30;24.50;60.40
33707;DHT22;20583;50.960;5.332;2022-07-10T04:23:56;24.50;60.30
33707;DHT22;20583;50.960;5.332;2022-07-10T04:26:22;24.50;60.30
33707;DHT22;20583;50.960;5.332;2022-07-10T04:28:48;24.50;60.30
33707;DHT22;20583;50.960;5.332;2022-07-10T04:31:13;24.40;60.30
33707;DHT22;20583;50.960;5.332;2022-07-10T04:33:39;24.40;60.30
33707;DHT22;20583;50.960;5.332;2022-07-10T04:36:05;24.40;60.30
33707;DHT22;20583;50.960;5.332;2022-07-10T04:38:31;24.40;60.30
33707;DHT22;20583;50.960;5.332;2022-07-10T04:40:57;24.40;60.40
33707;DHT22;20583;50.960;5.332;2022-07-10T04:43:23;24.40;60.40
33707;DHT22;20583;50.960;5.332;2022-07-10T04:45:49;24.40;60.40
33707;DHT22;20583;50.960;5.332;2022-07-10T04:48:14;24.40;60.50
33707;DHT22;20583;50.960;5.332;2022-07-10T04:50:40;24.40;60.40
33707;DHT22;20583;50.960;5.332;2022-07-10T04:53:06;24.40;60.40
33707;DHT22;20583;50.960;5.332;2022-07-10T04:55:31;24.40;60.20
33707;DHT22;20583;50.960;5.332;2022-07-10T04:57:58;24.40;60.30
33707;DHT22;20583;50.960;5.332;2022-07-10T05:00:24;24.30;60.40
33707;DHT22;20583;50.960;5.332;2022-07-10T05:02:50;24.30;60.50
33707;DHT22;20583;50.960;5.332;2022-07-10T05:05:15;24.30;60.40
33707;DHT22;20583;50.960;5.332;2022-07-10T05:07:41;24.30;60.40
33707;DHT22;20583;50.960;5.332;2022-07-10T05:10:07;24.30;60.40
33707;DHT22;20583;50.960;5.332;2022-07-10T05:12:33;24.40;60.30
33707;DHT22;20583;50.960;5.332;2022-07-10T05:14:59;24.40;60.30
33707;DHT22;20583;50.960;5.332;2022-07-10T05:17:26;24.30;60.30
33707;DHT22;20583;50.960;5.332;2022-07-10T05:19:54;24.30;60.30
33707;DHT22;20583;50.960;5.332;2022-07-10T05:22:21;24.30;60.40
33707;DHT22;20583;50.960;5.332;2022-07-10T05:24:47;24.30;60.40
33707;DHT22;20583;50.960;5.332;2022-07-10T05:27:13;24.30;60.30
33707;DHT22;20583;50.960;5.332;2022-07-10T05:29:38;24.30;60.50
33707;DHT22;20583;50.960;5.332;2022-07-10T05:32:04;24.30;60.30
33707;DHT22;20583;50.960;5.332;2022-07-10T05:34:30;24.30;60.70
33707;DHT22;20583;50.960;5.332;2022-07-10T05:36:56;24.30;61.80
33707;DHT22;20583;50.960;5.332;2022-07-10T05:39:22;24.30;62.10
33707;DHT22;20583;50.960;5.332;2022-07-10T05:41:51;24.10;61.50
33707;DHT22;20583;50.960;5.332;2022-07-10T05:44:18;23.90;62.20
33707;DHT22;20583;50.960;5.332;2022-07-10T05:46:45;23.90;62.80
33707;DHT22;20583;50.960;5.332;2022-07-10T05:49:11;23.60;63.00
33707;DHT22;20583;50.960;5.332;2022-07-10T05:51:37;23.60;63.10
33707;DHT22;20583;50.960;5.332;2022-07-10T05:54:03;23.40;63.20
33707;DHT22;20583;50.960;5.332;2022-07-10T05:56:29;23.40;63.40
33707;DHT22;20583;50.960;5.332;2022-07-10T05:58:56;23.40;63.30
33707;DHT22;20583;50.960;5.332;2022-07-10T06:01:22;23.40;63.30
33707;DHT22;20583;50.960;5.332;2022-07-10T06:03:48;23.50;63.10
33707;DHT22;20583;50.960;5.332;2022-07-10T06:06:14;23.50;62.80
33707;DHT22;20583;50.960;5.332;2022-07-10T06:08:41;23.40;62.60
33707;DHT22;20583;50.960;5.332;2022-07-10T06:11:07;23.50;62.60
33707;DHT22;20583;50.960;5.332;2022-07-10T06:13:33;23.40;62.50
33707;DHT22;20583;50.960;5.332;2022-07-10T06:15:58;23.40;62.80
33707;DHT22;20583;50.960;5.332;2022-07-10T06:18:24;23.40;62.90
33707;DHT22;20583;50.960;5.332;2022-07-10T06:20:49;23.40;62.70
33707;DHT22;20583;50.960;5.332;2022-07-10T06:23:15;23.40;62.50
33707;DHT22;20583;50.960;5.332;2022-07-10T06:25:41;23.40;62.60
33707;DHT22;20583;50.960;5.332;2022-07-10T06:28:06;23.40;62.60
33707;DHT22;20583;50.960;5.332;2022-07-10T06:30:32;23.40;62.80
33707;DHT22;20583;50.960;5.332;2022-07-10T06:32:58;23.30;62.80
33707;DHT22;20583;50.960;5.332;2022-07-10T06:35:23;23.20;63.70
33707;DHT22;20583;50.960;5.332;2022-07-10T06:37:49;23.00;64.50
33707;DHT22;20583;50.960;5.332;2022-07-10T06:40:15;23.00;64.80
33707;DHT22;20583;50.960;5.332;2022-07-10T06:42:41;23.10;64.60
33707;DHT22;20583;50.960;5.332;2022-07-10T06:45:07;23.10;65.20
33707;DHT22;20583;50.960;5.332;2022-07-10T06:47:34;23.30;65.70
33707;DHT22;20583;50.960;5.332;2022-07-10T06:50:18;23.40;64.20
33707;DHT22;20583;50.960;5.332;2022-07-10T06:52:44;23.50;63.30
33707;DHT22;20583;50.960;5.332;2022-07-10T06:55:10;23.50;63.00
33707;DHT22;20583;50.960;5.332;2022-07-10T06:57:38;23.50;62.90
33707;DHT22;20583;50.960;5.332;2022-07-10T07:00:04;23.30;63.70
33707;DHT22;20583;50.960;5.332;2022-07-10T07:02:30;23.30;63.40
33707;DHT22;20583;50.960;5.332;2022-07-10T07:04:56;23.40;63.60
33707;DHT22;20583;50.960;5.332;2022-07-10T07:07:21;23.50;62.90
33707;DHT22;20583;50.960;5.332;2022-07-10T07:09:47;23.40;64.30
33707;DHT22;20583;50.960;5.332;2022-07-10T07:12:16;23.50;63.00
33707;DHT22;20583;50.960;5.332;2022-07-10T07:14:42;23.40;63.00
33707;DHT22;20583;50.960;5.332;2022-07-10T07:17:08;23.20;62.70
33707;DHT22;20583;50.960;5.332;2022-07-10T07:19:36;23.30;63.60
33707;DHT22;20583;50.960;5.332;2022-07-10T07:22:21;23.50;62.60
33707;DHT22;20583;50.960;5.332;2022-07-10T07:25:06;23.40;62.50
33707;DHT22;20583;50.960;5.332;2022-07-10T07:27:33;23.40;62.30
33707;DHT22;20583;50.960;5.332;2022-07-10T07:30:04;23.40;62.20
33707;DHT22;20583;50.960;5.332;2022-07-10T07:32:30;23.50;62.30
33707;DHT22;20583;50.960;5.332;2022-07-10T07:34:56;23.60;61.90
33707;DHT22;20583;50.960;5.332;2022-07-10T07:37:22;23.60;61.70
33707;DHT22;20583;50.960;5.332;2022-07-10T07:39:49;23.60;61.80
33707;DHT22;20583;50.960;5.332;2022-07-10T07:42:14;23.50;61.90
33707;DHT22;20583;50.960;5.332;2022-07-10T07:44:40;23.50;62.20
33707;DHT22;20583;50.960;5.332;2022-07-10T07:47:06;23.50;62.40
33707;DHT22;20583;50.960;5.332;2022-07-10T07:49:31;23.60;62.00
33707;DHT22;20583;50.960;5.332;2022-07-10T07:51:57;23.60;62.10
33707;DHT22;20583;50.960;5.332;2022-07-10T07:54:23;23.70;61.80
33707;DHT22;20583;50.960;5.332;2022-07-10T07:56:48;23.70;61.50
33707;DHT22;20583;50.960;5.332;2022-07-10T07:59:14;23.70;61.40
33707;DHT22;20583;50.960;5.332;2022-07-10T08:01:40;23.60;61.60
33707;DHT22;20583;50.960;5.332;2022-07-10T08:04:05;23.60;61.90
33707;DHT22;20583;50.960;5.332;2022-07-10T08:06:31;23.60;61.80
33707;DHT22;20583;50.960;5.332;2022-07-10T08:08:56;23.70;61.40
33707;DHT22;20583;50.960;5.332;2022-07-10T08:11:22;23.70;61.50
33707;DHT22;20583;50.960;5.332;2022-07-10T08:13:48;23.60;61.20
33707;DHT22;20583;50.960;5.332;2022-07-10T08:16:14;23.60;61.40
33707;DHT22;20583;50.960;5.332;2022-07-10T08:18:39;23.60;61.20
33707;DHT22;20583;50.960;5.332;2022-07-10T08:21:05;23.60;61.20
33707;DHT22;20583;50.960;5.332;2022-07-10T08:23:31;23.60;61.40
33707;DHT22;20583;50.960;5.332;2022-07-10T08:25:58;23.60;61.30
33707;DHT22;20583;50.960;5.332;2022-07-10T08:28:23;23.60;61.10
33707;DHT22;20583;50.960;5.332;2022-07-10T08:30:49;23.60;61.20
33707;DHT22;20583;50.960;5.332;2022-07-10T08:33:14;23.60;61.30
33707;DHT22;20583;50.960;5.332;2022-07-10T08:35:40;23.60;61.50
33707;DHT22;20583;50.960;5.332;2022-07-10T08:38:08;23.70;61.10
33707;DHT22;20583;50.960;5.332;2022-07-10T08:40:35;23.60;61.10
33707;DHT22;20583;50.960;5.332;2022-07-10T08:43:04;23.60;61.20
33707;DHT22;20583;50.960;5.332;2022-07-10T08:45:32;23.70;60.90
33707;DHT22;20583;50.960;5.332;2022-07-10T08:48:04;23.70;61.00
33707;DHT22;20583;50.960;5.332;2022-07-10T08:50:33;23.70;60.90
33707;DHT22;20583;50.960;5.332;2022-07-10T08:53:12;23.60;61.00
33707;DHT22;20583;50.960;5.332;2022-07-10T08:55:39;23.60;61.30
33707;DHT22;20583;50.960;5.332;2022-07-10T08:58:05;23.70;61.30
33707;DHT22;20583;50.960;5.332;2022-07-10T09:00:34;23.70;61.10
33707;DHT22;20583;50.960;5.332;2022-07-10T09:03:00;23.70;61.00
33707;DHT22;20583;50.960;5.332;2022-07-10T09:05:26;23.70;61.10
33707;DHT22;20583;50.960;5.332;2022-07-10T09:07:53;23.70;61.00
33707;DHT22;20583;50.960;5.332;2022-07-10T09:10:20;23.70;61.00
33707;DHT22;20583;50.960;5.332;2022-07-10T09:12:57;23.80;61.00
33707;DHT22;20583;50.960;5.332;2022-07-10T09:15:28;23.80;61.00
33707;DHT22;20583;50.960;5.332;2022-07-10T09:17:59;23.80;61.00
33707;DHT22;20583;50.960;5.332;2022-07-10T09:20:30;23.80;61.00
33707;DHT22;20583;50.960;5.332;2022-07-10T09:22:57;23.80;61.00
33707;DHT22;20583;50.960;5.332;2022-07-10T09:25:30;23.80;61.00
33707;DHT22;20583;50.960;5.332;2022-07-10T09:27:56;23.70;61.10
33707;DHT22;20583;50.960;5.332;2022-07-10T09:30:37;23.70;61.10
33707;DHT22;20583;50.960;5.332;2022-07-10T09:33:23;23.80;61.10
33707;DHT22;20583;50.960;5.332;2022-07-10T09:36:00;23.80;61.00
33707;DHT22;20583;50.960;5.332;2022-07-10T09:43:54;23.70;61.30
33707;DHT22;20583;50.960;5.332;2022-07-10T09:46:26;23.60;61.40
33707;DHT22;20583;50.960;5.332;2022-07-10T09:49:10;23.60;61.50
33707;DHT22;20583;50.960;5.332;2022-07-10T09:51:40;23.50;61.60
33707;DHT22;20583;50.960;5.332;2022-07-10T09:54:07;23.60;61.50
33707;DHT22;20583;50.960;5.332;2022-07-10T09:56:42;23.60;61.40
33707;DHT22;20583;50.960;5.332;2022-07-10T09:59:11;23.70;61.20
33707;DHT22;20583;50.960;5.332;2022-07-10T10:01:37;23.70;61.20
33707;DHT22;20583;50.960;5.332;2022-07-10T10:04:06;23.80;61.20
33707;DHT22;20583;50.960;5.332;2022-07-10T10:06:36;23.80;61.10
33707;DHT22;20583;50.960;5.332;2022-07-10T10:09:24;23.80;61.00
33707;DHT22;20583;50.960;5.332;2022-07-10T10:11:57;23.70;61.40
33707;DHT22;20583;50.960;5.332;2022-07-10T10:14:28;23.60;61.50
33707;DHT22;20583;50.960;5.332;2022-07-10T10:16:55;23.60;61.50
33707;DHT22;20583;50.960;5.332;2022-07-10T10:19:23;23.60;61.60
33707;DHT22;20583;50.960;5.332;2022-07-10T10:22:08;23.60;61.70
33707;DHT22;20583;50.960;5.332;2022-07-10T10:24:34;23.60;61.70
33707;DHT22;20583;50.960;5.332;2022-07-10T10:27:01;23.60;61.90
33707;DHT22;20583;50.960;5.332;2022-07-10T10:29:28;23.60;61.70
33707;DHT22;20583;50.960;5.332;2022-07-10T10:31:54;23.70;61.60
33707;DHT22;20583;50.960;5.332;2022-07-10T10:34:44;23.70;61.40
33707;DHT22;20583;50.960;5.332;2022-07-10T10:37:34;23.70;61.40
33707;DHT22;20583;50.960;5.332;2022-07-10T10:40:08;23.80;61.40
33707;DHT22;20583;50.960;5.332;2022-07-10T10:42:41;23.80;61.40
33707;DHT22;20583;50.960;5.332;2022-07-10T10:45:33;23.70;61.50
33707;DHT22;20583;50.960;5.332;2022-07-10T10:48:05;23.80;61.60
33707;DHT22;20583;50.960;5.332;2022-07-10T10:50:48;23.80;61.50
33707;DHT22;20583;50.960;5.332;2022-07-10T10:53:25;23.80;61.60
33707;DHT22;20583;50.960;5.332;2022-07-10T10:58:45;23.60;62.10
33707;DHT22;20583;50.960;5.332;2022-07-10T11:04:15;23.60;62.20
33707;DHT22;20583;50.960;5.332;2022-07-10T11:06:43;23.60;62.20
33707;DHT22;20583;50.960;5.332;2022-07-10T11:09:29;23.70;62.00
33707;DHT22;20583;50.960;5.332;2022-07-10T11:14:52;23.60;62.40
33707;DHT22;20583;50.960;5.332;2022-07-10T11:17:27;23.50;62.50
33707;DHT22;20583;50.960;5.332;2022-07-10T11:19:53;23.60;62.60
33707;DHT22;20583;50.960;5.332;2022-07-10T11:25:32;23.70;62.10
33707;DHT22;20583;50.960;5.332;2022-07-10T11:28:13;23.70;62.20
33707;DHT22;20583;50.960;5.332;2022-07-10T11:30:44;23.80;62.10
33707;DHT22;20583;50.960;5.332;2022-07-10T11:33:10;23.90;62.00
33707;DHT22;20583;50.960;5.332;2022-07-10T11:35:37;23.80;62.00
33707;DHT22;20583;50.960;5.332;2022-07-10T11:38:03;23.70;62.30
33707;DHT22;20583;50.960;5.332;2022-07-10T11:40:28;23.70;62.40
33707;DHT22;20583;50.960;5.332;2022-07-10T11:42:55;23.70;62.60
33707;DHT22;20583;50.960;5.332;2022-07-10T11:45:26;23.70;62.60
33707;DHT22;20583;50.960;5.332;2022-07-10T11:47:53;23.70;62.50
33707;DHT22;20583;50.960;5.332;2022-07-10T11:50:18;23.80;62.40
33707;DHT22;20583;50.960;5.332;2022-07-10T11:52:45;23.80;62.30
33707;DHT22;20583;50.960;5.332;2022-07-10T11:55:18;23.70;62.60
33707;DHT22;20583;50.960;5.332;2022-07-10T11:57:45;23.80;62.40
33707;DHT22;20583;50.960;5.332;2022-07-10T12:00:28;23.80;62.40
33707;DHT22;20583;50.960;5.332;2022-07-10T12:02:56;23.80;62.50
33707;DHT22;20583;50.960;5.332;2022-07-10T12:05:42;23.80;62.60
33707;DHT22;20583;50.960;5.332;2022-07-10T12:08:08;23.80;62.70
33707;DHT22;20583;50.960;5.332;2022-07-10T12:10:34;23.90;62.50
33707;DHT22;20583;50.960;5.332;2022-07-10T12:13:08;23.80;62.70
33707;DHT22;20583;50.960;5.332;2022-07-10T12:18:18;23.80;62.70
33707;DHT22;20583;50.960;5.332;2022-07-10T12:20:45;23.70;62.90
33707;DHT22;20583;50.960;5.332;2022-07-10T12:23:19;23.70;63.00
33707;DHT22;20583;50.960;5.332;2022-07-10T12:25:46;23.70;63.10
33707;DHT22;20583;50.960;5.332;2022-07-10T12:28:14;23.70;63.20
33707;DHT22;20583;50.960;5.332;2022-07-10T12:30:45;23.60;63.40
33707;DHT22;20583;50.960;5.332;2022-07-10T12:33:18;23.60;63.40
33707;DHT22;20583;50.960;5.332;2022-07-10T12:38:19;23.60;64.20
33707;DHT22;20583;50.960;5.332;2022-07-10T12:40:45;23.60;64.20
33707;DHT22;20583;50.960;5.332;2022-07-10T12:43:11;23.60;64.20
33707;DHT22;20583;50.960;5.332;2022-07-10T12:45:38;23.70;64.00
33707;DHT22;20583;50.960;5.332;2022-07-10T12:48:07;23.70;64.30
33707;DHT22;20583;50.960;5.332;2022-07-10T12:50:46;23.70;64.60
33707;DHT22;20583;50.960;5.332;2022-07-10T12:53:12;23.80;64.20
33707;DHT22;20583;50.960;5.332;2022-07-10T12:55:41;23.80;63.90
33707;DHT22;20583;50.960;5.332;2022-07-10T12:58:10;23.80;64.30
33707;DHT22;20583;50.960;5.332;2022-07-10T13:00:47;23.90;64.50
33707;DHT22;20583;50.960;5.332;2022-07-10T13:03:20;23.80;64.70
33707;DHT22;20583;50.960;5.332;2022-07-10T13:05:47;23.80;64.90
33707;DHT22;20583;50.960;5.332;2022-07-10T13:08:15;23.80;64.90
33707;DHT22;20583;50.960;5.332;2022-07-10T13:10:48;23.90;64.50
33707;DHT22;20583;50.960;5.332;2022-07-10T13:13:14;23.80;64.90
33707;DHT22;20583;50.960;5.332;2022-07-10T13:15:40;23.90;64.70
33707;DHT22;20583;50.960;5.332;2022-07-10T13:18:16;23.90;64.50
33707;DHT22;20583;50.960;5.332;2022-07-10T13:20:44;23.90;64.30
33707;DHT22;20583;50.960;5.332;2022-07-10T13:23:10;23.90;64.30
33707;DHT22;20583;50.960;5.332;2022-07-10T13:25:39;23.90;64.30
33707;DHT22;20583;50.960;5.332;2022-07-10T13:28:05;23.90;64.50
33707;DHT22;20583;50.960;5.332;2022-07-10T13:30:32;23.80;64.50
33707;DHT22;20583;50.960;5.332;2022-07-10T13:32:58;23.80;64.60
33707;DHT22;20583;50.960;5.332;2022-07-10T13:35:31;23.80;64.50
33707;DHT22;20583;50.960;5.332;2022-07-10T13:37:58;23.90;64.40
33707;DHT22;20583;50.960;5.332;2022-07-10T13:40:29;24.00;64.30
33707;DHT22;20583;50.960;5.332;2022-07-10T13:42:56;24.00;66.80
33707;DHT22;20583;50.960;5.332;2022-07-10T13:45:22;24.10;67.50
33707;DHT22;20583;50.960;5.332;2022-07-10T13:47:48;24.10;65.10
33707;DHT22;20583;50.960;5.332;2022-07-10T13:50:14;24.00;65.40
33707;DHT22;20583;50.960;5.332;2022-07-10T13:52:40;24.00;66.40
33707;DHT22;20583;50.960;5.332;2022-07-10T13:55:06;24.00;65.90
33707;DHT22;20583;50.960;5.332;2022-07-10T13:57:32;24.00;67.10
33707;DHT22;20583;50.960;5.332;2022-07-10T13:59:58;24.10;66.10
33707;DHT22;20583;50.960;5.332;2022-07-10T14:02:24;24.20;65.20
33707;DHT22;20583;50.960;5.332;2022-07-10T14:04:51;24.10;65.30
33707;DHT22;20583;50.960;5.332;2022-07-10T14:07:17;24.00;65.60
33707;DHT22;20583;50.960;5.332;2022-07-10T14:09:43;24.10;65.70
33707;DHT22;20583;50.960;5.332;2022-07-10T14:12:08;24.00;66.00
33707;DHT22;20583;50.960;5.332;2022-07-10T14:14:34;24.00;66.00
33707;DHT22;20583;50.960;5.332;2022-07-10T14:17:00;24.00;66.00
33707;DHT22;20583;50.960;5.332;2022-07-10T14:19:25;24.00;66.20
33707;DHT22;20583;50.960;5.332;2022-07-10T14:21:51;24.10;66.10
33707;DHT22;20583;50.960;5.332;2022-07-10T14:24:17;24.00;66.20
33707;DHT22;20583;50.960;5.332;2022-07-10T14:26:43;24.00;66.40
33707;DHT22;20583;50.960;5.332;2022-07-10T14:29:08;24.00;66.60
33707;DHT22;20583;50.960;5.332;2022-07-10T14:31:34;24.00;66.50
33707;DHT22;20583;50.960;5.332;2022-07-10T14:34:00;24.00;66.50
33707;DHT22;20583;50.960;5.332;2022-07-10T14:36:25;24.20;66.10
33707;DHT22;20583;50.960;5.332;2022-07-10T14:38:55;24.20;66.10
33707;DHT22;20583;50.960;5.332;2022-07-10T14:41:24;24.30;66.50
33707;DHT22;20583;50.960;5.332;2022-07-10T14:43:51;24.20;66.50
33707;DHT22;20583;50.960;5.332;2022-07-10T14:46:17;24.20;66.50
33707;DHT22;20583;50.960;5.332;2022-07-10T14:48:43;24.40;65.80
33707;DHT22;20583;50.960;5.332;2022-07-10T14:51:09;24.50;65.50
33707;DHT22;20583;50.960;5.332;2022-07-10T14:53:35;24.50;65.20
33707;DHT22;20583;50.960;5.332;2022-07-10T14:56:03;24.60;65.00
33707;DHT22;20583;50.960;5.332;2022-07-10T14:58:28;24.60;64.90
33707;DHT22;20583;50.960;5.332;2022-07-10T15:00:54;24.60;64.80
33707;DHT22;20583;50.960;5.332;2022-07-10T15:03:20;24.70;65.50
33707;DHT22;20583;50.960;5.332;2022-07-10T15:05:46;24.60;64.70
33707;DHT22;20583;50.960;5.332;2022-07-10T15:08:12;24.70;64.50
33707;DHT22;20583;50.960;5.332;2022-07-10T15:10:38;24.70;64.30
33707;DHT22;20583;50.960;5.332;2022-07-10T15:13:04;24.70;64.30
33707;DHT22;20583;50.960;5.332;2022-07-10T15:15:32;24.70;64.20
33707;DHT22;20583;50.960;5.332;2022-07-10T15:17:58;24.70;64.20
33707;DHT22;20583;50.960;5.332;2022-07-10T15:20:23;24.70;64.20
33707;DHT22;20583;50.960;5.332;2022-07-10T15:22:49;24.70;64.10
33707;DHT22;20583;50.960;5.332;2022-07-10T15:25:15;24.80;64.00
33707;DHT22;20583;50.960;5.332;2022-07-10T15:27:40;24.70;63.80
33707;DHT22;20583;50.960;5.332;2022-07-10T15:30:08;24.70;64.10
33707;DHT22;20583;50.960;5.332;2022-07-10T15:32:37;24.70;64.10
33707;DHT22;20583;50.960;5.332;2022-07-10T15:35:02;24.70;64.20
33707;DHT22;20583;50.960;5.332;2022-07-10T15:37:28;24.70;64.00
33707;DHT22;20583;50.960;5.332;2022-07-10T15:39:54;24.80;63.90
33707;DHT22;20583;50.960;5.332;2022-07-10T15:42:20;24.80;63.90
33707;DHT22;20583;50.960;5.332;2022-07-10T15:44:46;24.90;63.80
33707;DHT22;20583;50.960;5.332;2022-07-10T15:47:12;24.90;63.60
33707;DHT22;20583;50.960;5.332;2022-07-10T15:49:37;24.90;63.60
33707;DHT22;20583;50.960;5.332;2022-07-10T15:52:03;24.80;63.60
33707;DHT22;20583;50.960;5.332;2022-07-10T15:54:29;24.70;64.30